KICL

Schenck Field Airport

Clarinda, Iowa, USA
METAR KICL 231055Z AUTO 00000KT 10SM CLR 17/15 A3008 RMK AO2
Observed Flight Rules
May-23 @ 10:55 UTC (22 minutes ago) Visual Flight Rules
Visibility Clouds
10 miles
  • Clear skies
Temperatures Readings
Current 17°C / 63°F
Dewpoint 15°C / 59°F
Humidity 88%
Altimeter 30.08" Hg
Pressure 1019 hPa
Elevation 303
METAR KICL 231055Z AUTO 00000KT 10SM CLR 17/15 A3008 RMK AO2
Observed Flight Rules
May-23 @ 10:55 UTC
(22 minutes ago)
VFR
Clouds
  • Clear skies
Temperature Dewpoint
17°C / 63°F 15°C / 59°F
Humidity Altimeter Pressure
88% 30.08" Hg 1019 hPa